Time;durP1;ratioP1;P1;durP2;ratioP2;P2;SDS_P1;SDS_P2;PMS_P1;PMS_P2;Temp;Humidity;BMP_temperature;BMP_pressure;BME280_temperature;BME280_humidity;BME280_pressure;Samples;Min_cycle;Max_cycle;Signal;HPM_P1;HPM_P2
2022/07/30 00:00:10;;;;;;;14.80;4.03;;;;;;;;;;5032071;28;20038;-82
2022/07/30 00:02:36;;;;;;;10.13;4.20;;;;;;;;;;5031998;28;20044;-79
2022/07/30 00:05:03;;;;;;;8.27;3.25;;;;;;;;;;5032077;28;20112;-79
2022/07/30 00:07:29;;;;;;;9.75;3.45;;;;;;;;;;5032225;28;20088;-83
2022/07/30 00:09:55;;;;;;;4.65;2.83;;;;;;;;;;5032287;28;20021;-79
2022/07/30 00:12:21;;;;;;;7.93;3.60;;;;;;;;;;5031845;28;20090;-80
2022/07/30 00:14:47;;;;;;;5.90;2.78;;;;;;;;;;5031619;28;20038;-79
2022/07/30 00:17:13;;;;;;;11.70;3.50;;;;;;;;;;5032085;28;20033;-79
2022/07/30 00:19:39;;;;;;;7.25;3.15;;;;;;;;;;5032115;28;20029;-80
2022/07/30 00:22:05;;;;;;;7.50;3.15;;;;;;;;;;5031834;28;20033;-80
2022/07/30 00:24:31;;;;;;;9.88;3.42;;;;;;;;;;5031873;28;20034;-70
2022/07/30 00:26:57;;;;;;;8.50;3.33;;;;;;;;;;5032239;28;20087;-80
2022/07/30 00:29:23;;;;;;;8.60;3.58;;;;;;;;;;5031930;28;20061;-80
2022/07/30 00:31:49;;;;;;;10.38;4.03;;;;;;;;;;5031587;28;20057;-81
2022/07/30 00:34:16;;;;;;;10.55;3.75;;;;;;;;;;5031567;28;20043;-81
2022/07/30 00:36:41;;;;;;;9.18;3.50;;;;;;;;;;5030176;28;20400;-81
2022/07/30 00:39:07;;;;;;;11.95;3.40;;;;;;;;;;5031840;28;20033;-81
2022/07/30 00:41:36;;;;;;;7.32;3.63;;;;;;;;;;5031660;28;20563;-79
2022/07/30 00:44:02;;;;;;;10.77;3.60;;;;;;;;;;5031453;28;20037;-77
2022/07/30 00:46:28;;;;;;;9.63;3.63;;;;;;;;;;5031447;28;20112;-80
2022/07/30 00:48:54;;;;;;;9.40;3.55;;;;;;;;;;5034322;28;20116;-81
2022/07/30 00:51:20;;;;;;;9.23;3.65;;;;;;;;;;5034471;28;20029;-81
2022/07/30 00:53:46;;;;;;;10.40;3.60;;;;;;;;;;5035493;28;20030;-81
2022/07/30 00:56:12;;;;;;;9.23;3.65;;;;;;;;;;5034217;28;20034;-81
2022/07/30 00:58:39;;;;;;;9.38;4.18;;;;;;;;;;5035563;28;20039;-81
2022/07/30 01:01:05;;;;;;;6.82;3.20;;;;;;;;;;5034197;28;20072;-80
2022/07/30 01:03:30;;;;;;;10.43;3.35;;;;;;;;;;5034334;28;20107;-80
2022/07/30 01:05:57;;;;;;;12.52;4.13;;;;;;;;;;5033931;28;20132;-80
2022/07/30 01:08:23;;;;;;;9.45;3.65;;;;;;;;;;5034268;28;20059;-80
2022/07/30 01:10:50;;;;;;;6.43;3.45;;;;;;;;;;5051206;28;20037;-80
2022/07/30 01:13:16;;;;;;;11.88;3.20;;;;;;;;;;5054872;28;20116;-79
2022/07/30 01:15:42;;;;;;;10.48;3.50;;;;;;;;;;5055143;28;20057;-79
2022/07/30 01:18:11;;;;;;;19.98;4.57;;;;;;;;;;5055087;28;20029;-80
2022/07/30 01:20:47;;;;;;;16.13;4.35;;;;;;;;;;5054649;28;20079;-79
2022/07/30 01:23:37;;;;;;;13.13;4.22;;;;;;;;;;5054682;28;20063;-80
2022/07/30 01:26:11;;;;;;;11.50;3.40;;;;;;;;;;5055040;28;20402;-79
2022/07/30 01:28:47;;;;;;;14.35;3.80;;;;;;;;;;5053512;28;20104;-79
2022/07/30 01:31:15;;;;;;;7.82;3.70;;;;;;;;;;5053449;28;20049;-78
2022/07/30 01:33:45;;;;;;;8.07;3.17;;;;;;;;;;5053562;28;20033;-80
2022/07/30 01:36:15;;;;;;;7.72;3.40;;;;;;;;;;5053589;28;20433;-80
2022/07/30 01:38:45;;;;;;;8.50;3.60;;;;;;;;;;5053621;28;20116;-80
2022/07/30 01:41:14;;;;;;;9.13;4.05;;;;;;;;;;5053603;28;20056;-80
2022/07/30 01:43:41;;;;;;;12.02;4.80;;;;;;;;;;5053489;28;20075;-79
2022/07/30 01:46:10;;;;;;;9.75;3.78;;;;;;;;;;5054763;28;20033;-79
2022/07/30 01:48:39;;;;;;;6.30;3.50;;;;;;;;;;5052793;28;20063;-79
2022/07/30 01:51:07;;;;;;;15.57;4.00;;;;;;;;;;5053885;28;20071;-79
2022/07/30 01:53:37;;;;;;;11.45;4.20;;;;;;;;;;5047274;28;20065;-77
2022/07/30 01:56:04;;;;;;;7.75;4.18;;;;;;;;;;5051351;28;20430;-75
2022/07/30 01:58:36;;;;;;;7.75;3.58;;;;;;;;;;5048172;28;20038;-80
2022/07/30 02:01:17;;;;;;;13.88;4.40;;;;;;;;;;5046929;28;20037;-79
2022/07/30 02:03:43;;;;;;;11.77;3.97;;;;;;;;;;5046918;28;20076;-78
2022/07/30 02:06:19;;;;;;;8.05;4.03;;;;;;;;;;5051065;28;20381;-79
2022/07/30 02:08:58;;;;;;;12.85;3.60;;;;;;;;;;5047408;28;20038;-80
2022/07/30 02:14:25;;;;;;;12.02;3.92;;;;;;;;;;5047700;28;20037;-80
2022/07/30 02:16:57;;;;;;;11.07;3.83;;;;;;;;;;5029340;28;20103;-80
2022/07/30 02:19:28;;;;;;;11.90;3.85;;;;;;;;;;5050894;28;20033;-78
2022/07/30 02:22:02;;;;;;;9.82;4.18;;;;;;;;;;5050474;28;20036;-80
2022/07/30 02:24:32;;;;;;;9.55;3.90;;;;;;;;;;5034407;28;20056;-80
2022/07/30 02:27:03;;;;;;;8.95;3.90;;;;;;;;;;5052350;28;20040;-79
2022/07/30 02:29:33;;;;;;;11.68;3.90;;;;;;;;;;5050608;28;20057;-80
2022/07/30 02:32:01;;;;;;;9.80;3.60;;;;;;;;;;5050353;28;20048;-80
2022/07/30 02:34:31;;;;;;;10.25;3.60;;;;;;;;;;5050759;28;20135;-80
2022/07/30 02:37:00;;;;;;;11.10;4.03;;;;;;;;;;5048819;28;20112;-80
2022/07/30 02:39:29;;;;;;;6.85;3.50;;;;;;;;;;5050591;28;20491;-81
2022/07/30 02:41:56;;;;;;;7.40;3.83;;;;;;;;;;5050960;28;20032;-81
2022/07/30 02:44:25;;;;;;;12.65;3.85;;;;;;;;;;5051351;28;20031;-80
2022/07/30 02:46:52;;;;;;;6.55;3.63;;;;;;;;;;5050533;28;20041;-78
2022/07/30 02:49:29;;;;;;;5.97;3.50;;;;;;;;;;5052146;28;20049;-80
2022/07/30 02:51:57;;;;;;;9.30;3.20;;;;;;;;;;5046498;28;20041;-79
2022/07/30 02:54:26;;;;;;;7.95;4.00;;;;;;;;;;5046462;28;20047;-79
2022/07/30 02:56:56;;;;;;;12.32;3.70;;;;;;;;;;5038064;28;20037;-78
2022/07/30 02:59:23;;;;;;;11.30;4.22;;;;;;;;;;5033679;28;20036;-77
2022/07/30 03:01:50;;;;;;;9.40;4.07;;;;;;;;;;5050166;28;20032;-80
2022/07/30 03:04:19;;;;;;;9.52;3.75;;;;;;;;;;5050104;28;20033;-80
2022/07/30 03:06:48;;;;;;;10.80;4.20;;;;;;;;;;5050102;28;20029;-79
2022/07/30 03:09:16;;;;;;;8.82;3.92;;;;;;;;;;5050622;28;20029;-79
2022/07/30 03:11:43;;;;;;;11.10;4.55;;;;;;;;;;5049716;28;20388;-78
2022/07/30 03:14:11;;;;;;;12.55;3.90;;;;;;;;;;5050221;28;20186;-79
2022/07/30 03:16:40;;;;;;;12.43;4.28;;;;;;;;;;5051978;28;20108;-79
2022/07/30 03:19:09;;;;;;;13.60;4.85;;;;;;;;;;5050319;28;20116;-78
2022/07/30 03:21:36;;;;;;;10.23;4.10;;;;;;;;;;5047842;28;20036;-78
2022/07/30 03:24:05;;;;;;;12.15;4.40;;;;;;;;;;5046791;28;20033;-79
2022/07/30 03:26:34;;;;;;;8.93;4.35;;;;;;;;;;5049634;28;20044;-80
2022/07/30 03:29:01;;;;;;;9.77;4.22;;;;;;;;;;5049484;28;20037;-77
2022/07/30 03:31:29;;;;;;;8.77;3.75;;;;;;;;;;5046623;28;20493;-78
2022/07/30 03:33:56;;;;;;;7.85;3.25;;;;;;;;;;5048673;28;20438;-76
2022/07/30 03:36:23;;;;;;;10.98;3.72;;;;;;;;;;5048466;28;20041;-76
2022/07/30 03:38:49;;;;;;;14.38;3.90;;;;;;;;;;5045947;28;20404;-77
2022/07/30 03:41:17;;;;;;;7.82;3.25;;;;;;;;;;5047631;28;20535;-78
2022/07/30 03:43:45;;;;;;;11.90;3.85;;;;;;;;;;5047264;28;20037;-78
2022/07/30 03:46:13;;;;;;;16.05;4.60;;;;;;;;;;5046198;28;20037;-77
2022/07/30 03:48:43;;;;;;;19.27;5.22;;;;;;;;;;5045175;28;20087;-78
2022/07/30 03:51:09;;;;;;;9.85;4.20;;;;;;;;;;5050544;28;20561;-77
2022/07/30 03:53:40;;;;;;;7.30;3.50;;;;;;;;;;5044435;28;20492;-78
2022/07/30 03:56:25;;;;;;;6.32;3.67;;;;;;;;;;5037945;28;20842;-79
2022/07/30 03:59:20;;;;;;;14.90;3.90;;;;;;;;;;5035723;28;20502;-78
2022/07/30 04:01:47;;;;;;;6.88;3.50;;;;;;;;;;5049967;28;20057;-78
2022/07/30 04:04:31;;;;;;;7.75;3.47;;;;;;;;;;5050961;28;20029;-78
2022/07/30 04:06:57;;;;;;;11.18;3.60;;;;;;;;;;5055110;28;20028;-77
2022/07/30 04:09:23;;;;;;;8.27;3.67;;;;;;;;;;5051711;28;20041;-74
2022/07/30 04:11:49;;;;;;;6.63;3.30;;;;;;;;;;5054175;28;20121;-77
2022/07/30 04:14:21;;;;;;;14.68;3.88;;;;;;;;;;5047804;28;20591;-78
2022/07/30 04:16:47;;;;;;;10.63;4.13;;;;;;;;;;5055151;28;20063;-78
2022/07/30 04:19:33;;;;;;;15.65;4.50;;;;;;;;;;5057779;28;20037;-78
2022/07/30 04:22:00;;;;;;;16.10;4.38;;;;;;;;;;5052684;28;20546;-79
2022/07/30 04:24:30;;;;;;;19.20;4.80;;;;;;;;;;5054833;28;20033;-79
2022/07/30 04:26:59;;;;;;;12.07;4.03;;;;;;;;;;5055233;28;20442;-79
2022/07/30 04:29:26;;;;;;;10.30;3.92;;;;;;;;;;5051108;28;20059;-76
2022/07/30 04:31:54;;;;;;;10.23;4.57;;;;;;;;;;5049607;28;20084;-78
2022/07/30 04:34:46;;;;;;;16.20;4.60;;;;;;;;;;5052572;28;20087;-79
2022/07/30 04:37:15;;;;;;;13.02;4.28;;;;;;;;;;5051061;28;20399;-79
2022/07/30 04:39:42;;;;;;;16.17;5.40;;;;;;;;;;5047593;28;20032;-76
2022/07/30 04:42:08;;;;;;;9.70;3.88;;;;;;;;;;5048311;28;20567;-78
2022/07/30 04:44:35;;;;;;;12.35;4.60;;;;;;;;;;5047561;28;20040;-79
2022/07/30 04:47:31;;;;;;;13.20;4.72;;;;;;;;;;5037865;28;20468;-80
2022/07/30 04:50:18;;;;;;;15.90;4.18;;;;;;;;;;5050802;28;20090;-75
2022/07/30 04:52:46;;;;;;;25.40;4.70;;;;;;;;;;5045667;28;20060;-79
2022/07/30 04:55:19;;;;;;;18.80;4.78;;;;;;;;;;5046418;28;20472;-78
2022/07/30 04:57:49;;;;;;;13.18;4.32;;;;;;;;;;5045701;28;20037;-79
2022/07/30 05:00:16;;;;;;;11.88;4.18;;;;;;;;;;5048066;28;20037;-70
2022/07/30 05:02:45;;;;;;;26.50;5.90;;;;;;;;;;5047914;28;20033;-79
2022/07/30 05:05:13;;;;;;;28.27;6.10;;;;;;;;;;5045205;28;20044;-79
2022/07/30 05:07:39;;;;;;;15.25;5.00;;;;;;;;;;5047401;28;20396;-79
2022/07/30 05:10:08;;;;;;;9.13;4.70;;;;;;;;;;5047275;28;20045;-77
2022/07/30 05:12:38;;;;;;;12.23;4.63;;;;;;;;;;5048227;28;20124;-79
2022/07/30 05:15:06;;;;;;;14.95;5.20;;;;;;;;;;5047956;28;20040;-79
2022/07/30 05:17:33;;;;;;;14.02;4.55;;;;;;;;;;5048308;28;20033;-79
2022/07/30 05:20:02;;;;;;;9.65;4.15;;;;;;;;;;5048553;28;20089;-80
2022/07/30 05:22:35;;;;;;;10.40;4.55;;;;;;;;;;5049585;28;20033;-81
2022/07/30 05:25:01;;;;;;;15.23;5.20;;;;;;;;;;5047579;28;20086;-80
2022/07/30 05:27:28;;;;;;;8.05;4.78;;;;;;;;;;5048253;28;20033;-81
2022/07/30 05:29:54;;;;;;;15.98;3.92;;;;;;;;;;5048166;28;20029;-80
2022/07/30 05:32:21;;;;;;;15.00;4.32;;;;;;;;;;5047685;28;20045;-80
2022/07/30 05:34:47;;;;;;;14.52;4.50;;;;;;;;;;5047337;28;20033;-72
2022/07/30 05:37:14;;;;;;;9.98;4.45;;;;;;;;;;5068248;28;20890;-81
2022/07/30 05:39:41;;;;;;;9.43;4.25;;;;;;;;;;5050936;28;20549;-79
2022/07/30 05:42:33;;;;;;;13.93;4.60;;;;;;;;;;5038019;28;20044;-80
2022/07/30 05:44:59;;;;;;;10.90;4.18;;;;;;;;;;5052216;28;20447;-81
2022/07/30 05:47:26;;;;;;;10.02;4.40;;;;;;;;;;5048792;28;20029;-80
2022/07/30 05:49:52;;;;;;;16.95;4.93;;;;;;;;;;5051022;28;20165;-80
2022/07/30 05:52:18;;;;;;;10.45;4.80;;;;;;;;;;5052336;28;20167;-80
2022/07/30 05:54:45;;;;;;;14.77;4.55;;;;;;;;;;5050783;28;20084;-81
2022/07/30 05:57:37;;;;;;;13.20;4.13;;;;;;;;;;5052073;28;20037;-76
2022/07/30 06:00:06;;;;;;;8.70;4.43;;;;;;;;;;5050950;28;20033;-80
2022/07/30 06:02:48;;;;;;;13.48;4.53;;;;;;;;;;5047876;28;20072;-80
2022/07/30 06:05:20;;;;;;;9.05;4.15;;;;;;;;;;5052298;28;20037;-80
2022/07/30 06:07:47;;;;;;;7.78;4.05;;;;;;;;;;5047619;28;20034;-80
2022/07/30 06:10:15;;;;;;;7.68;3.92;;;;;;;;;;5048241;28;20057;-80
2022/07/30 06:12:41;;;;;;;17.67;4.30;;;;;;;;;;5049194;28;20483;-80
2022/07/30 06:15:09;;;;;;;10.15;4.13;;;;;;;;;;5045054;28;20499;-78
2022/07/30 06:17:44;;;;;;;10.80;4.13;;;;;;;;;;5041447;28;20544;-81
2022/07/30 06:20:12;;;;;;;17.25;4.03;;;;;;;;;;5034287;28;20034;-79
2022/07/30 06:22:56;;;;;;;9.50;3.60;;;;;;;;;;5050394;28;20500;-80
2022/07/30 06:25:30;;;;;;;7.88;4.10;;;;;;;;;;5050181;28;20042;-80
2022/07/30 06:27:56;;;;;;;7.65;3.67;;;;;;;;;;5051653;28;20360;-79
2022/07/30 06:30:23;;;;;;;7.80;3.35;;;;;;;;;;5060760;28;20465;-81
2022/07/30 06:32:49;;;;;;;9.50;4.13;;;;;;;;;;5049938;28;20087;-80
2022/07/30 06:35:17;;;;;;;10.68;3.50;;;;;;;;;;5039354;28;20033;-77
2022/07/30 06:37:43;;;;;;;10.05;3.92;;;;;;;;;;5038202;28;20038;-76
2022/07/30 06:40:11;;;;;;;7.03;3.67;;;;;;;;;;5049962;28;20476;-74
2022/07/30 06:42:50;;;;;;;10.15;4.00;;;;;;;;;;5033505;28;20040;-79
2022/07/30 06:45:34;;;;;;;11.98;3.88;;;;;;;;;;5034782;28;20468;-84
2022/07/30 06:48:33;;;;;;;8.00;3.80;;;;;;;;;;5025520;28;20041;-76
2022/07/30 06:51:04;;;;;;;6.97;3.33;;;;;;;;;;5052010;28;20033;-81
2022/07/30 06:53:31;;;;;;;6.38;3.60;;;;;;;;;;5052432;28;20484;-79
2022/07/30 06:56:23;;;;;;;11.52;3.58;;;;;;;;;;5053078;28;20724;-73
2022/07/30 06:58:56;;;;;;;6.05;3.60;;;;;;;;;;5045425;28;20522;-78
2022/07/30 07:01:25;;;;;;;7.00;3.33;;;;;;;;;;5033401;28;20038;-76
2022/07/30 07:03:52;;;;;;;6.93;3.25;;;;;;;;;;5031139;28;20033;-77
2022/07/30 07:06:18;;;;;;;5.50;3.22;;;;;;;;;;5031942;28;20044;-75
2022/07/30 07:08:44;;;;;;;5.38;2.97;;;;;;;;;;5052834;28;20036;-74
2022/07/30 07:11:13;;;;;;;7.45;3.25;;;;;;;;;;5050780;28;20033;-76
2022/07/30 07:13:46;;;;;;;7.88;3.13;;;;;;;;;;5048423;28;20608;-76
2022/07/30 07:16:20;;;;;;;10.57;3.50;;;;;;;;;;5040940;28;20481;-75
2022/07/30 07:18:47;;;;;;;10.27;3.90;;;;;;;;;;5030912;28;20091;-77
2022/07/30 07:21:14;;;;;;;4.32;2.70;;;;;;;;;;5047040;28;20040;-76
2022/07/30 07:23:40;;;;;;;7.13;2.95;;;;;;;;;;5032494;28;20039;-74
2022/07/30 07:26:07;;;;;;;8.95;3.05;;;;;;;;;;5030719;28;20045;-76
2022/07/30 07:28:33;;;;;;;4.95;3.03;;;;;;;;;;5032669;28;20037;-77
2022/07/30 07:31:01;;;;;;;8.75;3.10;;;;;;;;;;5030158;28;20493;-76
2022/07/30 07:33:28;;;;;;;7.35;2.92;;;;;;;;;;5046837;28;20136;-78
2022/07/30 07:35:54;;;;;;;6.25;2.95;;;;;;;;;;5030765;28;20370;-77
2022/07/30 07:38:25;;;;;;;3.53;2.65;;;;;;;;;;5047536;28;20033;-77
2022/07/30 07:40:53;;;;;;;7.68;2.85;;;;;;;;;;5067279;28;20033;-77
2022/07/30 07:43:20;;;;;;;5.43;2.97;;;;;;;;;;5050788;28;20040;-75
2022/07/30 07:45:46;;;;;;;8.00;3.45;;;;;;;;;;5046800;28;20041;-77
2022/07/30 07:48:12;;;;;;;7.13;2.97;;;;;;;;;;5040878;28;20496;-77
2022/07/30 07:51:01;;;;;;;5.90;2.75;;;;;;;;;;5031511;28;20056;-74
2022/07/30 07:53:31;;;;;;;8.10;2.63;;;;;;;;;;5030693;28;20120;-74
2022/07/30 07:55:58;;;;;;;4.45;2.65;;;;;;;;;;5029850;28;20572;-75
2022/07/30 07:58:24;;;;;;;7.28;2.80;;;;;;;;;;5041631;28;20037;-76
2022/07/30 08:00:50;;;;;;;3.92;2.58;;;;;;;;;;5050143;28;20037;-75
2022/07/30 08:03:18;;;;;;;6.57;3.13;;;;;;;;;;5049274;28;20403;-75
2022/07/30 08:05:45;;;;;;;11.57;3.78;;;;;;;;;;5042946;28;20025;-78
2022/07/30 08:08:19;;;;;;;6.55;3.00;;;;;;;;;;5056258;28;20025;-77
2022/07/30 08:11:11;;;;;;;8.23;3.85;;;;;;;;;;5022235;28;20087;-77
2022/07/30 08:13:55;;;;;;;6.22;3.10;;;;;;;;;;5039578;28;20434;-72
2022/07/30 08:16:40;;;;;;;5.93;2.88;;;;;;;;;;5045658;28;20106;-75
2022/07/30 08:19:23;;;;;;;4.70;3.35;;;;;;;;;;5049942;28;20040;-77
2022/07/30 08:21:58;;;;;;;6.20;2.83;;;;;;;;;;5049431;28;20037;-82
2022/07/30 08:24:28;;;;;;;5.20;2.70;;;;;;;;;;5046472;28;20412;-79
2022/07/30 08:26:55;;;;;;;5.13;3.20;;;;;;;;;;5030169;28;20044;-77
2022/07/30 08:29:22;;;;;;;7.55;2.70;;;;;;;;;;5030521;28;20087;-75
2022/07/30 08:31:49;;;;;;;7.38;3.20;;;;;;;;;;5030463;28;20041;-81
2022/07/30 08:34:15;;;;;;;4.72;2.75;;;;;;;;;;5030052;28;20072;-82
2022/07/30 08:36:41;;;;;;;8.90;3.50;;;;;;;;;;5042985;28;20033;-82
2022/07/30 08:39:07;;;;;;;6.93;3.20;;;;;;;;;;5051073;28;20044;-83
2022/07/30 08:41:35;;;;;;;7.75;2.80;;;;;;;;;;5040162;28;20036;-82
2022/07/30 08:44:02;;;;;;;6.30;3.20;;;;;;;;;;5040558;28;20128;-81
2022/07/30 08:46:31;;;;;;;6.38;3.00;;;;;;;;;;5031898;28;20040;-81
2022/07/30 08:49:04;;;;;;;6.47;3.10;;;;;;;;;;5038925;28;20140;-83
2022/07/30 08:51:31;;;;;;;5.25;3.13;;;;;;;;;;5031378;28;20044;-80
2022/07/30 08:54:09;;;;;;;4.57;3.20;;;;;;;;;;5032083;28;20037;-77
2022/07/30 08:56:36;;;;;;;8.30;4.03;;;;;;;;;;5030614;28;20485;-79
2022/07/30 08:59:04;;;;;;;7.07;2.78;;;;;;;;;;5031437;28;20439;-81
2022/07/30 09:01:30;;;;;;;4.20;2.90;;;;;;;;;;5035977;28;20116;-81
2022/07/30 09:03:56;;;;;;;8.23;3.22;;;;;;;;;;5030982;28;20036;-78
2022/07/30 09:06:24;;;;;;;5.85;3.05;;;;;;;;;;5030947;28;20124;-82
2022/07/30 09:08:51;;;;;;;4.40;2.75;;;;;;;;;;5032573;28;20030;-78
2022/07/30 09:11:17;;;;;;;6.35;2.95;;;;;;;;;;5035033;28;20038;-77
2022/07/30 09:13:46;;;;;;;4.68;2.78;;;;;;;;;;5038665;28;20079;-79
2022/07/30 09:16:23;;;;;;;4.82;2.80;;;;;;;;;;5049557;28;20041;-78
2022/07/30 09:18:52;;;;;;;6.20;2.88;;;;;;;;;;5034888;28;20037;-80
2022/07/30 09:21:24;;;;;;;3.45;2.50;;;;;;;;;;5035088;28;20112;-82
2022/07/30 09:24:10;;;;;;;7.50;3.17;;;;;;;;;;5034702;28;20488;-78
2022/07/30 09:27:01;;;;;;;5.05;2.70;;;;;;;;;;5029610;28;20643;-80
2022/07/30 09:29:55;;;;;;;8.10;2.95;;;;;;;;;;5044825;28;20056;-79
2022/07/30 09:32:53;;;;;;;4.82;2.80;;;;;;;;;;5032763;28;20041;-80
2022/07/30 09:35:38;;;;;;;3.58;2.53;;;;;;;;;;5054179;28;20044;-82
2022/07/30 09:38:11;;;;;;;5.70;2.78;;;;;;;;;;5044846;28;20037;-79
2022/07/30 09:40:57;;;;;;;11.80;3.60;;;;;;;;;;5055073;28;20056;-81
2022/07/30 09:43:47;;;;;;;5.65;2.85;;;;;;;;;;5050980;28;20030;-81
2022/07/30 09:47:01;;;;;;;5.28;2.85;;;;;;;;;;5047232;28;20392;-80
2022/07/30 09:49:33;;;;;;;7.88;3.15;;;;;;;;;;5038072;28;20046;-83
2022/07/30 09:51:59;;;;;;;6.22;3.10;;;;;;;;;;5049968;28;20052;-83
2022/07/30 09:54:49;;;;;;;5.20;2.83;;;;;;;;;;5054044;28;20037;-79
2022/07/30 09:57:15;;;;;;;7.47;3.22;;;;;;;;;;5053911;28;20049;-80
2022/07/30 09:59:41;;;;;;;7.03;3.00;;;;;;;;;;5053893;28;20037;-81
2022/07/30 10:02:08;;;;;;;8.68;3.13;;;;;;;;;;5053595;28;20032;-82
2022/07/30 10:04:52;;;;;;;3.97;2.63;;;;;;;;;;5053416;28;20041;-81
2022/07/30 10:07:21;;;;;;;7.20;3.03;;;;;;;;;;5053461;28;20036;-82
2022/07/30 10:09:48;;;;;;;11.90;3.53;;;;;;;;;;5053350;28;20067;-80
2022/07/30 10:12:19;;;;;;;4.45;2.85;;;;;;;;;;5053561;28;20033;-81
2022/07/30 10:14:49;;;;;;;4.72;2.90;;;;;;;;;;5053205;28;20033;-79
2022/07/30 10:17:18;;;;;;;5.88;3.70;;;;;;;;;;5049532;28;20504;-81
2022/07/30 10:19:57;;;;;;;6.75;3.35;;;;;;;;;;5033342;28;20059;-77
2022/07/30 10:22:58;;;;;;;6.05;3.17;;;;;;;;;;4973630;28;20053;-79
2022/07/30 10:25:56;;;;;;;8.30;3.17;;;;;;;;;;4990372;28;20104;-77
2022/07/30 10:28:49;;;;;;;7.05;3.20;;;;;;;;;;5036131;28;20053;-77
2022/07/30 10:31:15;;;;;;;5.15;2.92;;;;;;;;;;5053662;28;20041;-76
2022/07/30 10:33:41;;;;;;;3.72;2.85;;;;;;;;;;5054230;28;20033;-82
2022/07/30 10:36:10;;;;;;;4.18;2.83;;;;;;;;;;5054277;28;20064;-78
2022/07/30 10:38:38;;;;;;;9.77;3.20;;;;;;;;;;5040949;28;20079;-82
2022/07/30 10:41:16;;;;;;;3.83;2.70;;;;;;;;;;5033855;28;20029;-83
2022/07/30 10:44:22;;;;;;;5.90;2.63;;;;;;;;;;5046790;28;20044;-79
2022/07/30 10:47:05;;;;;;;4.32;2.75;;;;;;;;;;5053846;28;20075;-79
2022/07/30 10:49:31;;;;;;;6.22;2.75;;;;;;;;;;5054206;28;20039;-81
2022/07/30 10:51:58;;;;;;;5.00;3.08;;;;;;;;;;5054215;28;20033;-79
2022/07/30 10:54:33;;;;;;;5.22;2.75;;;;;;;;;;5052069;28;20044;-79
2022/07/30 10:57:19;;;;;;;8.60;5.82;;;;;;;;;;5039796;28;20052;-80
2022/07/30 10:59:54;;;;;;;7.85;3.20;;;;;;;;;;5033869;28;20104;-78
2022/07/30 11:02:38;;;;;;;7.35;3.08;;;;;;;;;;5041473;28;20388;-78
2022/07/30 11:05:16;;;;;;;8.73;3.13;;;;;;;;;;5042343;28;20040;-78
2022/07/30 11:07:44;;;;;;;6.15;2.80;;;;;;;;;;5053483;28;20032;-78
2022/07/30 11:10:37;;;;;;;3.03;2.70;;;;;;;;;;5053899;28;20040;-77
2022/07/30 11:13:03;;;;;;;;;;;;;;;;;;5054688;28;20040;-75
2022/07/30 11:15:53;;;;;;;3.97;2.67;;;;;;;;;;5051145;28;19920;-80
2022/07/30 11:18:20;;;;;;;4.22;2.70;;;;;;;;;;5042651;28;20102;-78
2022/07/30 11:21:22;;;;;;;3.22;2.38;;;;;;;;;;5033807;28;20052;-82
2022/07/30 11:23:48;;;;;;;5.60;3.00;;;;;;;;;;5034587;28;20030;-81
2022/07/30 11:26:40;;;;;;;9.25;3.40;;;;;;;;;;5032495;28;20381;-81
2022/07/30 11:29:25;;;;;;;5.00;2.97;;;;;;;;;;5032172;28;20037;-79
2022/07/30 11:31:51;;;;;;;5.00;3.33;;;;;;;;;;5031159;28;20046;-80
2022/07/30 11:34:17;;;;;;;5.57;3.30;;;;;;;;;;5032260;28;20037;-83
2022/07/30 11:37:02;;;;;;;5.40;3.40;;;;;;;;;;5032743;28;20076;-77
2022/07/30 11:39:54;;;;;;;9.05;3.55;;;;;;;;;;5032502;28;20050;-79
2022/07/30 11:42:29;;;;;;;5.90;3.80;;;;;;;;;;5036072;28;20146;-81
2022/07/30 11:45:14;;;;;;;7.65;4.00;;;;;;;;;;5053291;28;20495;-78
2022/07/30 11:47:49;;;;;;;9.82;3.95;;;;;;;;;;5053691;28;20033;-80
2022/07/30 11:50:31;;;;;;;6.43;4.38;;;;;;;;;;5053162;28;20024;-80
2022/07/30 11:53:03;;;;;;;8.40;4.75;;;;;;;;;;5051409;28;20040;-79
2022/07/30 11:55:32;;;;;;;12.07;5.82;;;;;;;;;;5051771;28;20029;-79
2022/07/30 11:58:00;;;;;;;8.98;4.00;;;;;;;;;;5052530;28;20089;-78
2022/07/30 12:00:35;;;;;;;8.90;4.20;;;;;;;;;;5053686;28;20058;-81
2022/07/30 12:03:07;;;;;;;7.47;4.88;;;;;;;;;;5052342;28;20025;-80
2022/07/30 12:05:33;;;;;;;;;;;;;;;;;;5053625;28;20037;-74
2022/07/30 12:07:59;;;;;;;4.22;3.50;;;;;;;;;;5053623;28;19924;-80
2022/07/30 12:10:25;;;;;;;6.07;3.22;;;;;;;;;;5035403;28;20040;-79
2022/07/30 12:12:51;;;;;;;4.90;3.40;;;;;;;;;;5053033;28;20037;-81
2022/07/30 12:15:29;;;;;;;5.45;3.40;;;;;;;;;;5053494;28;20033;-82
2022/07/30 12:17:55;;;;;;;7.93;3.70;;;;;;;;;;5054029;28;20346;-78
2022/07/30 12:20:21;;;;;;;4.80;3.33;;;;;;;;;;5053678;28;20441;-80
2022/07/30 12:22:47;;;;;;;5.32;3.65;;;;;;;;;;5044624;28;20064;-77
2022/07/30 12:25:13;;;;;;;5.35;3.78;;;;;;;;;;5032997;28;20038;-75
2022/07/30 12:27:43;;;;;;;7.40;4.30;;;;;;;;;;5033160;28;20488;-77
2022/07/30 12:30:09;;;;;;;8.98;3.92;;;;;;;;;;5033388;28;20519;-79
2022/07/30 12:32:36;;;;;;;7.82;3.63;;;;;;;;;;5032875;28;20125;-78
2022/07/30 12:35:03;;;;;;;4.50;3.67;;;;;;;;;;5032978;28;20128;-77
2022/07/30 12:37:29;;;;;;;4.60;3.47;;;;;;;;;;5033181;28;20040;-80
2022/07/30 12:40:14;;;;;;;5.72;4.28;;;;;;;;;;5032951;28;20029;-77
2022/07/30 12:42:52;;;;;;;6.43;4.07;;;;;;;;;;5033396;28;20469;-76
2022/07/30 12:45:32;;;;;;;7.82;3.90;;;;;;;;;;5037201;28;20112;-75
2022/07/30 12:47:58;;;;;;;8.73;4.22;;;;;;;;;;5038068;28;20032;-76
2022/07/30 12:50:26;;;;;;;7.63;4.47;;;;;;;;;;5044329;28;20032;-77
2022/07/30 12:52:54;;;;;;;6.72;4.93;;;;;;;;;;5056215;28;20476;-77
2022/07/30 12:55:30;;;;;;;14.45;11.07;;;;;;;;;;5056929;28;20523;-75
2022/07/30 12:58:04;;;;;;;15.80;12.30;;;;;;;;;;5057013;28;20093;-75
2022/07/30 13:00:53;;;;;;;15.30;11.88;;;;;;;;;;5056206;28;20078;-73
2022/07/30 13:03:27;;;;;;;8.90;6.50;;;;;;;;;;5055887;28;20036;-75
2022/07/30 13:05:55;;;;;;;12.80;10.02;;;;;;;;;;5055798;28;20487;-74
2022/07/30 13:08:51;;;;;;;16.60;10.65;;;;;;;;;;5056368;28;20472;-77
2022/07/30 13:11:18;;;;;;;19.08;10.32;;;;;;;;;;5056189;28;20380;-76
2022/07/30 13:13:45;;;;;;;16.55;9.48;;;;;;;;;;5055866;28;20099;-79
2022/07/30 13:16:12;;;;;;;11.15;7.35;;;;;;;;;;5038455;28;20103;-80
2022/07/30 13:18:38;;;;;;;13.13;8.35;;;;;;;;;;5055921;28;20492;-80
2022/07/30 13:21:07;;;;;;;16.38;11.07;;;;;;;;;;5056504;28;20099;-80
2022/07/30 13:23:38;;;;;;;21.98;12.80;;;;;;;;;;5056329;28;20036;-79
2022/07/30 13:26:06;;;;;;;16.73;12.48;;;;;;;;;;5056047;28;20569;-78
2022/07/30 13:28:34;;;;;;;13.57;7.85;;;;;;;;;;5056058;28;20064;-79
2022/07/30 13:31:01;;;;;;;12.50;6.50;;;;;;;;;;5034414;28;20046;-80
2022/07/30 13:33:27;;;;;;;12.25;7.20;;;;;;;;;;5035293;28;20021;-81
2022/07/30 13:35:53;;;;;;;12.20;6.57;;;;;;;;;;5034698;28;20034;-81
2022/07/30 13:38:19;;;;;;;13.32;7.32;;;;;;;;;;5034661;28;20109;-77
2022/07/30 13:40:45;;;;;;;7.07;5.15;;;;;;;;;;5033288;28;20184;-80
2022/07/30 13:43:11;;;;;;;8.27;4.80;;;;;;;;;;5023677;28;20049;-84
2022/07/30 13:45:37;;;;;;;9.75;4.07;;;;;;;;;;5036446;28;20088;-79
2022/07/30 13:48:03;;;;;;;9.55;5.13;;;;;;;;;;5036237;28;20026;-80
2022/07/30 13:50:30;;;;;;;10.85;4.45;;;;;;;;;;5036769;28;20057;-83
2022/07/30 13:52:56;;;;;;;6.25;3.78;;;;;;;;;;5033709;28;20766;-77
2022/07/30 13:55:22;;;;;;;5.13;3.33;;;;;;;;;;5034600;28;20033;-79
2022/07/30 13:57:48;;;;;;;5.03;3.60;;;;;;;;;;5035540;28;20083;-77
2022/07/30 14:00:14;;;;;;;5.25;3.40;;;;;;;;;;5035326;28;20095;-77
2022/07/30 14:02:40;;;;;;;9.85;4.35;;;;;;;;;;5035109;28;20060;-75
2022/07/30 14:05:06;;;;;;;9.73;4.32;;;;;;;;;;5030016;28;20065;-76
2022/07/30 14:07:36;;;;;;;4.95;2.95;;;;;;;;;;5015597;28;20038;-79
2022/07/30 14:10:03;;;;;;;5.18;3.58;;;;;;;;;;5015419;28;20533;-75
2022/07/30 14:12:29;;;;;;;5.72;3.67;;;;;;;;;;5016063;28;20064;-81
2022/07/30 14:14:55;;;;;;;5.40;3.50;;;;;;;;;;5015328;28;20054;-77
2022/07/30 14:17:21;;;;;;;5.88;3.40;;;;;;;;;;5024399;28;20033;-76
2022/07/30 14:19:49;;;;;;;6.50;4.30;;;;;;;;;;5035416;28;20076;-75
2022/07/30 14:22:14;;;;;;;11.60;6.90;;;;;;;;;;5035298;28;20092;-77
2022/07/30 14:24:40;;;;;;;8.57;5.28;;;;;;;;;;5034626;28;20026;-75
2022/07/30 14:27:06;;;;;;;11.15;5.60;;;;;;;;;;5033807;28;20458;-75
2022/07/30 14:29:32;;;;;;;9.07;6.28;;;;;;;;;;5034667;28;20033;-79
2022/07/30 14:31:58;;;;;;;7.10;5.07;;;;;;;;;;5048455;28;20128;-75
2022/07/30 14:34:24;;;;;;;8.00;5.55;;;;;;;;;;5054371;28;20078;-75
2022/07/30 14:36:50;;;;;;;7.50;5.03;;;;;;;;;;5054258;28;20037;-75
2022/07/30 14:39:16;;;;;;;4.28;3.20;;;;;;;;;;5055623;28;20036;-77
2022/07/30 14:41:42;;;;;;;4.75;3.60;;;;;;;;;;5054117;28;20033;-77
2022/07/30 14:44:11;;;;;;;8.57;5.03;;;;;;;;;;5054283;28;20457;-75
2022/07/30 14:46:37;;;;;;;6.60;4.13;;;;;;;;;;5054704;28;20123;-77
2022/07/30 14:49:03;;;;;;;13.20;4.75;;;;;;;;;;5036775;28;20041;-80
2022/07/30 14:51:29;;;;;;;9.98;4.38;;;;;;;;;;5054772;28;20032;-77
2022/07/30 14:53:56;;;;;;;5.68;4.05;;;;;;;;;;5054907;28;20575;-78
2022/07/30 14:56:23;;;;;;;7.32;3.55;;;;;;;;;;5053862;28;20048;-77
2022/07/30 14:58:50;;;;;;;6.60;3.45;;;;;;;;;;5054140;28;20021;-81
2022/07/30 15:01:16;;;;;;;6.03;4.10;;;;;;;;;;5053973;28;20096;-78
2022/07/30 15:03:43;;;;;;;5.63;3.28;;;;;;;;;;5054046;28;20137;-75